createdAt,value
2022-12-19T00:02:00.187Z,6.60
2022-12-19T00:04:28.712Z,3.20
2022-12-19T00:06:58.834Z,3.67
2022-12-19T00:09:28.010Z,4.37
2022-12-19T00:11:56.650Z,3.90
2022-12-19T00:14:25.239Z,2.80
2022-12-19T00:16:54.743Z,2.73
2022-12-19T00:19:23.480Z,4.23
2022-12-19T00:21:51.924Z,5.27
2022-12-19T00:24:21.384Z,3.90
2022-12-19T00:26:50.766Z,3.53
2022-12-19T00:29:19.287Z,5.10
2022-12-19T00:31:47.894Z,3.50
2022-12-19T00:34:16.732Z,4.93
2022-12-19T00:36:45.390Z,5.63
2022-12-19T00:39:13.915Z,2.70
2022-12-19T00:41:42.751Z,4.70
2022-12-19T00:44:14.437Z,5.17
2022-12-19T00:46:44.507Z,0.70
2022-12-19T00:49:15.634Z,5.23
2022-12-19T00:51:44.227Z,4.30
2022-12-19T00:54:12.774Z,2.93
2022-12-19T00:56:41.666Z,1.53
2022-12-19T00:59:10.793Z,3.90
2022-12-19T01:01:42.123Z,5.03
2022-12-19T01:04:33.514Z,3.90
2022-12-19T01:06:46.042Z,5.50
2022-12-19T01:09:14.841Z,5.23
2022-12-19T01:12:01.328Z,3.70
2022-12-19T01:14:29.820Z,3.70
2022-12-19T01:16:58.270Z,2.23
2022-12-19T01:19:28.326Z,3.23
2022-12-19T01:21:56.801Z,7.13
2022-12-19T01:24:25.338Z,2.10
2022-12-19T01:26:53.801Z,3.53
2022-12-19T01:29:22.361Z,3.53
2022-12-19T01:31:52.467Z,1.60
2022-12-19T01:34:21.092Z,4.40
2022-12-19T01:36:49.744Z,6.07
2022-12-19T01:39:18.655Z,4.13
2022-12-19T01:41:47.164Z,2.70
2022-12-19T01:44:15.675Z,3.97
2022-12-19T01:46:50.685Z,4.87
2022-12-19T01:49:27.807Z,2.10
2022-12-19T01:51:59.638Z,4.70
2022-12-19T01:54:34.152Z,6.20
2022-12-19T01:57:05.503Z,3.17
2022-12-19T01:59:37.071Z,4.57
2022-12-19T02:02:08.817Z,5.27
2022-12-19T02:04:37.816Z,4.70
2022-12-19T02:07:15.574Z,1.93
2022-12-19T02:09:39.155Z,2.13
2022-12-19T02:12:07.781Z,4.20
2022-12-19T02:14:37.077Z,4.63
2022-12-19T02:17:08.717Z,5.57
2022-12-19T02:20:15.298Z,3.07
2022-12-19T02:23:06.186Z,6.10
2022-12-19T02:25:57.483Z,5.47
2022-12-19T02:28:37.878Z,2.83
2022-12-19T02:31:18.557Z,2.17
2022-12-19T02:34:11.193Z,3.97
2022-12-19T02:36:45.452Z,5.03
2022-12-19T02:39:16.087Z,3.33
2022-12-19T02:41:55.252Z,5.20
2022-12-19T02:44:41.507Z,2.33
2022-12-19T02:47:10.765Z,3.83
2022-12-19T02:49:39.738Z,3.67
2022-12-19T02:52:22.758Z,2.03
2022-12-19T02:54:54.315Z,1.67
2022-12-19T02:57:31.802Z,5.17
2022-12-19T03:00:09.211Z,3.10
2022-12-19T03:03:00.822Z,4.60
2022-12-19T03:05:37.825Z,1.77
2022-12-19T03:08:30.745Z,2.83
2022-12-19T03:11:01.931Z,2.20
2022-12-19T03:13:33.638Z,2.97
2022-12-19T03:16:03.967Z,2.33
2022-12-19T03:18:34.281Z,2.00
2022-12-19T03:21:20.602Z,1.37
2022-12-19T03:23:51.103Z,2.13
2022-12-19T03:26:22.718Z,2.47
2022-12-19T03:29:06.339Z,0.97
2022-12-19T03:31:36.627Z,2.37
2022-12-19T03:34:08.548Z,2.40
2022-12-19T03:36:46.106Z,2.20
2022-12-19T03:39:17.377Z,2.47
2022-12-19T03:42:04.760Z,3.70
2022-12-19T03:44:36.436Z,3.17
2022-12-19T03:47:19.820Z,2.87
2022-12-19T03:49:49.410Z,1.90
2022-12-19T03:52:29.503Z,3.67
2022-12-19T03:55:03.624Z,2.13
2022-12-19T03:57:38.914Z,1.40
2022-12-19T04:00:13.098Z,1.50
2022-12-19T04:02:44.712Z,0.87
2022-12-19T04:05:25.207Z,3.27
2022-12-19T04:07:57.097Z,2.37
2022-12-19T04:10:28.242Z,5.00
2022-12-19T04:13:02.804Z,3.00
2022-12-19T04:15:43.104Z,2.83
2022-12-19T04:18:13.264Z,2.17
2022-12-19T04:20:44.837Z,1.70
2022-12-19T04:23:16.384Z,1.70
2022-12-19T04:25:47.986Z,2.80
2022-12-19T04:28:25.285Z,3.07
2022-12-19T04:30:55.241Z,3.33
2022-12-19T04:33:23.898Z,2.00
2022-12-19T04:35:52.583Z,4.63
2022-12-19T04:38:21.056Z,0.40
2022-12-19T04:40:49.780Z,2.87
2022-12-19T04:43:18.377Z,4.90
2022-12-19T04:45:49.672Z,2.50
2022-12-19T04:48:17.834Z,3.73
2022-12-19T04:50:46.368Z,2.53
2022-12-19T04:53:14.992Z,1.60
2022-12-19T04:55:44.178Z,2.97
2022-12-19T04:58:19.038Z,5.30
2022-12-19T05:00:46.140Z,2.60
2022-12-19T05:03:14.664Z,3.30
2022-12-19T05:05:43.365Z,4.10
2022-12-19T05:08:12.105Z,4.00
2022-12-19T05:10:41.211Z,2.50
2022-12-19T05:13:10.331Z,0.30
2022-12-19T05:15:38.846Z,3.10
2022-12-19T05:18:07.855Z,2.70
2022-12-19T05:20:38.136Z,1.10
2022-12-19T05:23:16.215Z,1.53
2022-12-19T05:25:38.405Z,1.60
2022-12-19T05:28:06.850Z,1.17
2022-12-19T05:30:35.364Z,3.03
2022-12-19T05:33:03.886Z,1.87
2022-12-19T05:35:32.406Z,0.87
2022-12-19T05:38:01.274Z,1.63
2022-12-19T05:40:29.852Z,2.77
2022-12-19T05:42:58.300Z,3.70
2022-12-19T05:45:26.789Z,4.17
2022-12-19T05:47:59.949Z,2.23
2022-12-19T05:50:25.570Z,3.03
2022-12-19T05:52:54.106Z,2.43
2022-12-19T05:55:22.690Z,3.37
2022-12-19T05:57:51.200Z,2.20
2022-12-19T06:00:19.912Z,1.80
2022-12-19T06:02:48.989Z,2.43
2022-12-19T06:05:17.800Z,4.97
2022-12-19T06:07:46.514Z,2.40
2022-12-19T06:10:15.120Z,2.93
2022-12-19T06:12:43.653Z,3.80
2022-12-19T06:15:12.660Z,3.67
2022-12-19T06:17:41.185Z,2.83
2022-12-19T06:20:10.294Z,1.63
2022-12-19T06:22:38.825Z,3.13
2022-12-19T06:25:07.731Z,2.70
2022-12-19T06:27:37.622Z,1.53
2022-12-19T06:30:06.902Z,1.87
2022-12-19T06:32:38.339Z,0.57
2022-12-19T06:35:07.845Z,1.77
2022-12-19T06:37:39.330Z,1.00
2022-12-19T06:40:07.272Z,1.40
2022-12-19T06:42:37.781Z,2.13
2022-12-19T06:45:06.972Z,0.67
2022-12-19T06:47:35.927Z,2.37
2022-12-19T06:50:04.576Z,1.47
2022-12-19T06:52:33.143Z,2.37
2022-12-19T06:55:01.831Z,2.00
2022-12-19T06:57:30.381Z,1.93
2022-12-19T06:59:59.326Z,1.40
2022-12-19T07:02:33.287Z,1.03
2022-12-19T07:05:05.180Z,1.60
2022-12-19T07:07:34.464Z,2.73
2022-12-19T07:10:04.208Z,0.97
2022-12-19T07:12:32.990Z,2.03
2022-12-19T07:15:01.914Z,1.63
2022-12-19T07:17:30.926Z,2.30
2022-12-19T07:19:59.941Z,2.10
2022-12-19T07:22:31.699Z,1.93
2022-12-19T07:25:02.096Z,1.80
2022-12-19T07:27:35.600Z,2.33
2022-12-19T07:30:00.532Z,2.87
2022-12-19T07:32:29.132Z,2.17
2022-12-19T07:34:57.736Z,0.97
2022-12-19T07:37:26.711Z,1.53
2022-12-19T07:39:55.243Z,2.27
2022-12-19T07:42:26.062Z,0.80
2022-12-19T07:44:53.963Z,1.83
2022-12-19T07:47:22.501Z,1.40
2022-12-19T07:49:51.859Z,1.43
2022-12-19T07:52:19.981Z,2.30
2022-12-19T07:54:48.544Z,1.77
2022-12-19T07:57:18.063Z,2.53
2022-12-19T07:59:46.675Z,1.47
2022-12-19T08:02:15.364Z,2.67
2022-12-19T08:04:43.930Z,2.77
2022-12-19T08:07:12.657Z,1.63
2022-12-19T08:09:41.199Z,2.63
2022-12-19T08:12:10.346Z,1.97
2022-12-19T08:14:38.891Z,1.93
2022-12-19T08:17:23.481Z,3.00
2022-12-19T08:19:38.408Z,2.50
2022-12-19T08:22:06.995Z,2.50
2022-12-19T08:24:36.614Z,2.97
2022-12-19T08:27:05.211Z,4.23
2022-12-19T08:29:33.848Z,2.90
2022-12-19T08:32:02.538Z,2.33
2022-12-19T08:34:31.164Z,2.40
2022-12-19T08:36:59.732Z,0.60
2022-12-19T08:39:28.264Z,0.33
2022-12-19T08:41:56.842Z,3.70
2022-12-19T08:44:25.381Z,3.70
2022-12-19T08:46:54.087Z,2.33
2022-12-19T08:49:22.715Z,3.40
2022-12-19T08:51:51.262Z,1.80
2022-12-19T08:54:19.717Z,3.30
2022-12-19T08:56:48.283Z,2.67
2022-12-19T08:59:19.312Z,3.80
2022-12-19T09:01:47.473Z,1.20
2022-12-19T09:05:52.914Z,2.33
2022-12-19T09:06:46.448Z,0.93
2022-12-19T09:09:14.982Z,1.67
2022-12-19T09:11:47.875Z,1.50
2022-12-19T09:14:14.207Z,1.20
2022-12-19T09:16:44.203Z,1.80
2022-12-19T09:19:16.649Z,2.17
2022-12-19T09:21:45.642Z,1.47
2022-12-19T09:24:14.563Z,1.60
2022-12-19T09:26:44.513Z,2.07
2022-12-19T09:29:20.839Z,5.33
2022-12-19T09:31:43.762Z,1.47
2022-12-19T09:34:12.267Z,2.87
2022-12-19T09:36:40.785Z,2.77
2022-12-19T09:39:10.800Z,2.30
2022-12-19T09:41:57.560Z,1.30
2022-12-19T09:44:34.869Z,2.73
2022-12-19T09:47:06.252Z,3.53
2022-12-19T09:49:46.517Z,2.30
2022-12-19T09:52:20.891Z,1.03
2022-12-19T09:54:52.540Z,2.30
2022-12-19T09:57:24.277Z,0.30
2022-12-19T10:00:05.055Z,2.60
2022-12-19T10:02:48.578Z,1.43
2022-12-19T10:07:15.962Z,1.80
2022-12-19T10:08:35.969Z,0.97
2022-12-19T10:12:39.023Z,1.53
2022-12-19T10:14:14.368Z,1.93
2022-12-19T10:17:01.995Z,1.03
2022-12-19T10:19:22.213Z,2.40
2022-12-19T10:22:17.699Z,2.17
2022-12-19T10:24:59.585Z,1.10
2022-12-19T10:27:36.055Z,2.47
2022-12-19T10:30:15.755Z,1.13
2022-12-19T10:33:03.648Z,1.70
2022-12-19T10:35:37.950Z,1.27
2022-12-19T10:38:22.794Z,1.60
2022-12-19T10:41:10.983Z,0.87
2022-12-19T10:43:45.688Z,1.83
2022-12-19T10:46:17.432Z,1.80
2022-12-19T10:48:46.379Z,1.13
2022-12-19T10:51:17.968Z,2.67
2022-12-19T10:53:49.643Z,1.93
2022-12-19T10:56:31.677Z,1.97
2022-12-19T10:58:58.829Z,1.33
2022-12-19T11:01:33.205Z,1.67
2022-12-19T11:04:25.709Z,3.23
2022-12-19T11:07:03.443Z,0.53
2022-12-19T11:09:55.580Z,0.83
2022-12-19T11:15:55.975Z,0.80
2022-12-19T11:19:16.572Z,0.67
2022-12-19T11:22:49.126Z,1.73
2022-12-19T11:29:31.805Z,1.83
2022-12-19T11:29:41.548Z,0.87
2022-12-19T11:30:36.277Z,0.43
2022-12-19T11:30:37.770Z,2.23
2022-12-19T11:33:44.575Z,0.87
2022-12-19T11:36:31.182Z,0.93
2022-12-19T11:39:01.107Z,2.07
2022-12-19T11:41:44.210Z,1.47
2022-12-19T11:44:27.326Z,2.27
2022-12-19T11:47:16.959Z,2.00
2022-12-19T11:49:49.077Z,1.23
2022-12-19T11:54:59.840Z,1.77
2022-12-19T11:57:28.662Z,1.07
2022-12-19T12:00:03.080Z,2.20
2022-12-19T12:02:32.919Z,1.50
2022-12-19T12:05:07.621Z,1.40
2022-12-19T12:08:07.314Z,2.27
2022-12-19T12:17:04.268Z,0.70
2022-12-19T12:21:25.512Z,1.43
2022-12-19T12:25:53.674Z,2.00
2022-12-19T12:31:05.654Z,0.40
2022-12-19T12:31:18.961Z,2.33
2022-12-19T12:31:43.660Z,0.90
2022-12-19T12:31:46.929Z,0.47
2022-12-19T12:31:57.407Z,1.10
2022-12-19T12:35:46.740Z,0.67
2022-12-19T12:37:54.062Z,1.23
2022-12-19T12:38:29.012Z,1.37
2022-12-19T12:41:16.169Z,1.97
2022-12-19T12:44:04.345Z,0.73
2022-12-19T12:46:41.750Z,1.70
2022-12-19T12:49:19.098Z,0.53
2022-12-19T12:51:48.399Z,1.57
2022-12-19T12:54:17.796Z,1.13
2022-12-19T12:56:48.298Z,0.67
2022-12-19T12:59:26.138Z,1.67
2022-12-19T13:02:03.120Z,1.90
2022-12-19T13:04:34.579Z,2.20
2022-12-19T13:07:17.902Z,1.23
2022-12-19T13:09:49.609Z,1.00
2022-12-19T13:12:46.804Z,1.40
2022-12-19T13:15:34.331Z,2.77
2022-12-19T13:18:14.844Z,1.57
2022-12-19T13:20:46.528Z,0.73
2022-12-19T13:23:24.321Z,1.77
2022-12-19T13:25:54.722Z,0.87
2022-12-19T13:28:26.362Z,1.40
2022-12-19T13:31:20.727Z,0.67
2022-12-19T13:33:50.320Z,0.97
2022-12-19T13:39:49.255Z,0.50
2022-12-19T13:39:57.246Z,0.20
2022-12-19T13:42:32.163Z,2.23
2022-12-19T13:45:11.746Z,0.30
2022-12-19T13:47:45.116Z,1.13
2022-12-19T13:50:19.299Z,0.30
2022-12-19T13:52:54.236Z,0.37
2022-12-19T13:55:22.780Z,0.77
2022-12-19T13:57:53.605Z,0.30
2022-12-19T14:00:25.173Z,0.97
2022-12-19T14:02:59.066Z,1.50
2022-12-19T14:06:16.968Z,0.63
2022-12-19T14:08:05.639Z,0.10
2022-12-19T14:11:32.087Z,0.43
2022-12-19T14:13:57.073Z,0.10
2022-12-19T14:15:58.715Z,1.33
2022-12-19T14:18:42.426Z,0.50
2022-12-19T14:22:03.778Z,2.23
2022-12-19T14:24:05.533Z,0.73
2022-12-19T14:28:23.379Z,0.47
2022-12-19T14:29:15.485Z,0.10
2022-12-19T14:32:23.808Z,0.37
2022-12-19T14:34:46.687Z,0.10
2022-12-19T14:36:57.475Z,0.57
2022-12-19T14:39:35.287Z,0.10
2022-12-19T14:42:32.968Z,0.53
2022-12-19T14:52:11.611Z,0.47
2022-12-19T14:53:52.386Z,1.07
2022-12-19T14:54:23.812Z,0.70
2022-12-19T14:54:55.334Z,0.23
2022-12-19T14:56:12.353Z,0.80
2022-12-19T14:58:54.700Z,0.83
2022-12-19T15:01:12.235Z,0.57
2022-12-19T15:03:43.373Z,0.87
2022-12-19T15:07:09.009Z,0.10
2022-12-19T15:10:57.319Z,0.53
2022-12-19T15:12:09.963Z,0.67
2022-12-19T15:14:52.565Z,1.10
2022-12-19T15:17:21.601Z,0.10
2022-12-19T15:19:49.870Z,0.27
2022-12-19T15:22:19.917Z,0.20
2022-12-19T15:24:57.072Z,0.17
2022-12-19T15:27:28.283Z,0.10
2022-12-19T15:29:59.554Z,0.37
2022-12-19T15:32:33.320Z,0.97
2022-12-19T15:35:01.784Z,0.30
2022-12-19T15:37:35.425Z,0.77
2022-12-19T15:40:04.029Z,0.87
2022-12-19T15:45:31.472Z,1.70
2022-12-19T15:48:00.487Z,0.10
2022-12-19T15:50:32.195Z,1.13
2022-12-19T15:53:16.122Z,0.97
2022-12-19T15:55:51.046Z,0.20
2022-12-19T15:58:29.832Z,0.47
2022-12-19T16:01:04.807Z,0.60
2022-12-19T16:03:34.488Z,1.30
2022-12-19T16:06:03.270Z,0.50
2022-12-19T16:08:33.275Z,0.80
2022-12-19T16:11:05.003Z,0.73
2022-12-19T16:13:35.545Z,0.43
2022-12-19T16:16:13.019Z,1.23
2022-12-19T16:18:46.974Z,0.70
2022-12-19T16:21:24.789Z,1.50
2022-12-19T16:23:54.550Z,0.10
2022-12-19T16:26:35.507Z,0.60
2022-12-19T16:29:06.214Z,0.40
2022-12-19T16:31:35.014Z,0.53
2022-12-19T16:34:03.891Z,0.63
2022-12-19T16:36:33.700Z,0.70
2022-12-19T16:39:02.348Z,0.57
2022-12-19T16:41:31.138Z,0.20
2022-12-19T16:44:02.218Z,0.40
2022-12-19T16:46:31.278Z,0.50
2022-12-19T16:49:00.027Z,0.80
2022-12-19T16:51:29.329Z,0.77
2022-12-19T16:54:00.209Z,1.30
2022-12-19T16:56:37.449Z,1.47
2022-12-19T16:59:19.088Z,1.43
2022-12-19T17:01:48.184Z,0.53
2022-12-19T17:04:19.346Z,1.20
2022-12-19T17:06:49.715Z,0.83
2022-12-19T17:09:20.968Z,0.67
2022-12-19T17:11:51.039Z,1.23
2022-12-19T17:14:20.809Z,0.20
2022-12-19T17:16:51.109Z,1.50
2022-12-19T17:19:21.417Z,1.07
2022-12-19T17:21:50.138Z,1.40
2022-12-19T17:24:20.763Z,0.40
2022-12-19T17:26:49.332Z,1.10
2022-12-19T17:29:18.005Z,0.53
2022-12-19T17:31:46.750Z,0.80
2022-12-19T17:34:22.572Z,1.37
2022-12-19T17:36:52.006Z,1.77
2022-12-19T17:39:23.318Z,0.80
2022-12-19T17:41:52.571Z,1.30
2022-12-19T17:44:21.547Z,0.60
2022-12-19T17:46:50.339Z,0.63
2022-12-19T17:49:30.661Z,0.10
2022-12-19T17:52:00.636Z,0.27
2022-12-19T17:54:31.265Z,1.37
2022-12-19T17:56:59.981Z,0.93
2022-12-19T17:59:29.536Z,0.53
2022-12-19T18:01:58.595Z,0.97
2022-12-19T18:04:28.656Z,1.13
2022-12-19T18:06:57.287Z,0.70
2022-12-19T18:09:25.742Z,1.07
2022-12-19T18:11:54.159Z,0.60
2022-12-19T18:14:22.443Z,1.90
2022-12-19T18:16:51.050Z,1.17
2022-12-19T18:19:20.453Z,1.93
2022-12-19T18:21:49.196Z,1.60
2022-12-19T18:24:17.614Z,1.00
2022-12-19T18:26:46.144Z,1.57
2022-12-19T18:29:14.490Z,0.53
2022-12-19T18:31:50.120Z,0.60
2022-12-19T18:34:20.575Z,1.30
2022-12-19T18:36:49.313Z,0.87
2022-12-19T18:39:26.041Z,1.43
2022-12-19T18:41:55.553Z,1.77
2022-12-19T18:44:24.412Z,1.17
2022-12-19T18:46:53.538Z,0.93
2022-12-19T18:49:22.939Z,0.50
2022-12-19T18:51:51.507Z,1.40
2022-12-19T18:54:22.448Z,0.70
2022-12-19T18:56:51.871Z,1.90
2022-12-19T18:59:20.455Z,1.73
2022-12-19T19:01:49.282Z,0.90
2022-12-19T19:04:19.502Z,1.43
2022-12-19T19:06:51.971Z,0.30
2022-12-19T19:09:21.114Z,0.77
2022-12-19T19:11:49.779Z,0.70
2022-12-19T19:14:18.420Z,1.00
2022-12-19T19:16:47.244Z,1.03
2022-12-19T19:19:18.037Z,1.60
2022-12-19T19:21:47.136Z,1.70
2022-12-19T19:24:21.886Z,1.60
2022-12-19T19:26:50.854Z,1.70
2022-12-19T19:29:19.578Z,0.67
2022-12-19T19:31:52.397Z,0.43
2022-12-19T19:34:24.068Z,1.63
2022-12-19T19:36:55.823Z,1.70
2022-12-19T19:39:27.562Z,0.87
2022-12-19T19:41:56.364Z,0.77
2022-12-19T19:44:25.404Z,0.87
2022-12-19T19:46:54.199Z,1.00
2022-12-19T19:49:23.299Z,1.17
2022-12-19T19:51:58.485Z,1.57
2022-12-19T19:54:22.817Z,1.70
2022-12-19T19:56:51.381Z,1.40
2022-12-19T19:59:21.236Z,1.17
2022-12-19T20:01:51.584Z,0.60
2022-12-19T20:04:22.097Z,1.33
2022-12-19T20:06:50.759Z,1.63
2022-12-19T20:09:19.389Z,1.97
2022-12-19T20:11:48.139Z,0.60
2022-12-19T20:14:16.727Z,1.80
2022-12-19T20:16:45.363Z,0.97
2022-12-19T20:19:15.489Z,1.20
2022-12-19T20:21:44.746Z,0.50
2022-12-19T20:24:13.362Z,0.90
2022-12-19T20:26:42.653Z,1.27
2022-12-19T20:29:11.555Z,1.17
2022-12-19T20:31:40.569Z,0.43
2022-12-19T20:34:09.692Z,1.97
2022-12-19T20:36:38.383Z,0.80
2022-12-19T20:39:07.714Z,1.57
2022-12-19T20:41:39.264Z,0.80
2022-12-19T20:44:07.986Z,1.37
2022-12-19T20:46:43.013Z,0.60
2022-12-19T20:49:24.283Z,0.63
2022-12-19T20:51:56.314Z,1.50
2022-12-19T20:54:28.583Z,1.00
2022-12-19T20:56:57.176Z,1.23
2022-12-19T20:59:26.011Z,0.73
2022-12-19T21:01:56.350Z,1.13
2022-12-19T21:04:29.257Z,0.40
2022-12-19T21:06:58.027Z,0.40
2022-12-19T21:09:26.686Z,0.63
2022-12-19T21:11:55.172Z,1.50
2022-12-19T21:14:23.865Z,0.40
2022-12-19T21:16:52.490Z,0.20
2022-12-19T21:19:21.073Z,0.80
2022-12-19T21:21:49.643Z,1.57
2022-12-19T21:24:18.273Z,0.83
2022-12-19T21:26:51.783Z,0.30
2022-12-19T21:29:19.735Z,0.83
2022-12-19T21:31:48.463Z,1.33
2022-12-19T21:34:17.136Z,1.10
2022-12-19T21:36:45.914Z,0.90
2022-12-19T21:39:14.582Z,1.20
2022-12-19T21:41:43.199Z,0.60
2022-12-19T21:44:13.542Z,0.33
2022-12-19T21:46:42.668Z,0.73
2022-12-19T21:49:11.177Z,0.87
2022-12-19T21:51:42.407Z,0.30
2022-12-19T21:54:11.084Z,1.57
2022-12-19T21:56:41.505Z,1.17
2022-12-19T21:59:15.581Z,0.67
2022-12-19T22:01:45.436Z,0.40
2022-12-19T22:04:18.459Z,0.53
2022-12-19T22:06:50.879Z,0.80
2022-12-19T22:09:20.476Z,0.63
2022-12-19T22:11:49.087Z,0.27
2022-12-19T22:14:17.912Z,1.50
2022-12-19T22:16:46.309Z,1.43
2022-12-19T22:19:17.802Z,0.47
2022-12-19T22:21:46.757Z,0.50
2022-12-19T22:24:16.894Z,0.30
2022-12-19T22:26:47.168Z,1.00
2022-12-19T22:29:18.105Z,0.73
2022-12-19T22:31:47.559Z,0.83
2022-12-19T22:34:19.229Z,1.00
2022-12-19T22:36:49.062Z,0.10
2022-12-19T22:39:20.237Z,0.73
2022-12-19T22:41:48.866Z,0.27
2022-12-19T22:44:20.632Z,0.20
2022-12-19T22:46:49.896Z,0.83
2022-12-19T22:49:18.817Z,0.93
2022-12-19T22:51:47.450Z,0.33
2022-12-19T22:54:16.116Z,0.10
2022-12-19T22:56:44.709Z,0.83
2022-12-19T22:59:13.813Z,0.63
2022-12-19T23:01:44.161Z,0.50
2022-12-19T23:04:16.464Z,0.40
2022-12-19T23:06:45.326Z,1.03
2022-12-19T23:09:16.953Z,1.00
2022-12-19T23:11:48.454Z,0.33
2022-12-19T23:14:19.190Z,0.77
2022-12-19T23:16:48.513Z,0.50
2022-12-19T23:19:17.817Z,1.07
2022-12-19T23:21:47.184Z,0.60
2022-12-19T23:24:15.886Z,0.57
2022-12-19T23:26:44.489Z,0.70
2022-12-19T23:29:15.273Z,0.80
2022-12-19T23:31:45.907Z,0.13
2022-12-19T23:34:15.424Z,1.13
2022-12-19T23:39:16.296Z,0.80
2022-12-19T23:41:45.393Z,1.20
2022-12-19T23:44:14.209Z,1.13
2022-12-19T23:46:42.822Z,0.37
2022-12-19T23:49:11.367Z,1.23
2022-12-19T23:51:39.918Z,0.23
2022-12-19T23:54:08.840Z,1.20
2022-12-19T23:56:37.531Z,0.90
2022-12-19T23:59:06.133Z,0.90
